Time;durP1;ratioP1;P1;durP2;ratioP2;P2;SDS_P1;SDS_P2;PMS_P1;PMS_P2;Temp;Humidity;BMP_temperature;BMP_pressure;BME280_temperature;BME280_humidity;BME280_pressure;Samples;Min_cycle;Max_cycle;Signal;HPM_P1;HPM_P2
2022/06/29 00:00:37;;;;;;;9.48;2.30;;;;;;;;;;5057942;28;20051;-63
2022/06/29 00:03:04;;;;;;;6.35;2.00;;;;;;;;;;5050496;28;20083;-64
2022/06/29 00:05:31;;;;;;;5.53;2.15;;;;;;;;;;5052376;28;20063;-63
2022/06/29 00:07:57;;;;;;;4.60;1.88;;;;;;;;;;5042279;28;20139;-63
2022/06/29 00:10:30;;;;;;;4.18;2.00;;;;;;;;;;5054880;28;20060;-63
2022/06/29 00:12:57;;;;;;;5.80;2.13;;;;;;;;;;5037471;28;20052;-63
2022/06/29 00:15:23;;;;;;;7.72;2.50;;;;;;;;;;5048365;28;20049;-63
2022/06/29 00:17:49;;;;;;;4.30;1.80;;;;;;;;;;5061442;28;20051;-64
2022/06/29 00:20:16;;;;;;;4.13;2.13;;;;;;;;;;5054849;28;20050;-64
2022/06/29 00:22:43;;;;;;;4.70;1.80;;;;;;;;;;5060976;28;20506;-64
2022/06/29 00:25:10;;;;;;;4.65;1.88;;;;;;;;;;5048163;28;20052;-63
2022/06/29 00:27:37;;;;;;;3.75;2.03;;;;;;;;;;5050695;28;20127;-63
2022/06/29 00:30:04;;;;;;;5.95;2.40;;;;;;;;;;5061461;28;20131;-63
2022/06/29 00:32:30;;;;;;;5.78;2.28;;;;;;;;;;5052880;28;20337;-64
2022/06/29 00:34:58;;;;;;;6.82;2.33;;;;;;;;;;5059258;28;20061;-63
2022/06/29 00:37:24;;;;;;;5.43;2.30;;;;;;;;;;5052259;28;20485;-63
2022/06/29 00:39:51;;;;;;;4.65;2.20;;;;;;;;;;5058028;28;20048;-63
2022/06/29 00:42:17;;;;;;;6.13;2.28;;;;;;;;;;5063220;28;20176;-64
2022/06/29 00:44:44;;;;;;;5.20;2.55;;;;;;;;;;5052625;28;20139;-63
2022/06/29 00:47:10;;;;;;;4.55;2.10;;;;;;;;;;5057504;28;20052;-63
2022/06/29 00:49:36;;;;;;;4.00;2.05;;;;;;;;;;5039739;28;20053;-63
2022/06/29 00:52:05;;;;;;;4.38;2.33;;;;;;;;;;5062143;28;20443;-63
2022/06/29 00:54:31;;;;;;;;;;;;;;;;;;5054888;28;20056;-63
2022/06/29 00:56:58;;;;;;;6.80;2.00;;;;;;;;;;5062962;28;19931;-63
2022/06/29 00:59:26;;;;;;;5.37;2.30;;;;;;;;;;5056823;28;20045;-63
2022/06/29 01:01:52;;;;;;;6.03;2.40;;;;;;;;;;5053806;28;20056;-64
2022/06/29 01:04:18;;;;;;;3.95;2.10;;;;;;;;;;5055186;28;20111;-63
2022/06/29 01:06:45;;;;;;;5.15;2.30;;;;;;;;;;5052823;28;20493;-64
2022/06/29 01:09:12;;;;;;;4.68;1.88;;;;;;;;;;5060724;28;20188;-63
2022/06/29 01:11:38;;;;;;;4.03;1.90;;;;;;;;;;5043097;28;20040;-64
2022/06/29 01:14:05;;;;;;;6.07;2.20;;;;;;;;;;5048028;28;20053;-64
2022/06/29 01:16:31;;;;;;;4.18;2.22;;;;;;;;;;5041129;28;20048;-64
2022/06/29 01:18:57;;;;;;;3.90;2.22;;;;;;;;;;5052650;28;20153;-63
2022/06/29 01:21:25;;;;;;;5.13;2.30;;;;;;;;;;5060735;28;20063;-62
2022/06/29 01:23:51;;;;;;;3.83;2.30;;;;;;;;;;5052447;28;20667;-64
2022/06/29 01:26:18;;;;;;;3.75;2.00;;;;;;;;;;5060931;28;20052;-64
2022/06/29 01:28:46;;;;;;;6.30;2.60;;;;;;;;;;5057072;28;20087;-63
2022/06/29 01:31:12;;;;;;;;;;;;;;;;;;5043862;28;20411;-64
2022/06/29 01:33:38;;;;;;;4.65;2.47;;;;;;;;;;5057356;28;19924;-64
2022/06/29 01:36:05;;;;;;;4.32;2.58;;;;;;;;;;5055274;28;20385;-64
2022/06/29 01:38:31;;;;;;;4.65;2.78;;;;;;;;;;5048333;28;20049;-64
2022/06/29 01:40:58;;;;;;;5.53;3.08;;;;;;;;;;5053509;28;20040;-63
2022/06/29 01:43:24;;;;;;;10.65;2.47;;;;;;;;;;5057249;28;20071;-64
2022/06/29 01:45:50;;;;;;;6.65;2.55;;;;;;;;;;5053360;28;20527;-64
2022/06/29 01:48:17;;;;;;;6.38;2.30;;;;;;;;;;5051808;28;20139;-64
2022/06/29 01:50:43;;;;;;;8.45;3.15;;;;;;;;;;5060885;28;20597;-64
2022/06/29 01:53:10;;;;;;;5.78;3.10;;;;;;;;;;5050254;28;20356;-63
2022/06/29 01:55:36;;;;;;;3.85;2.78;;;;;;;;;;5053012;28;20091;-63
2022/06/29 01:58:02;;;;;;;6.47;3.20;;;;;;;;;;5056397;28;20527;-64
2022/06/29 02:00:28;;;;;;;6.65;3.03;;;;;;;;;;5047743;28;20048;-62
2022/06/29 02:02:55;;;;;;;7.32;3.15;;;;;;;;;;5052773;28;20535;-62
2022/06/29 02:05:21;;;;;;;6.75;3.38;;;;;;;;;;5035947;28;20144;-63
2022/06/29 02:07:47;;;;;;;6.72;3.25;;;;;;;;;;5035930;28;20044;-63
2022/06/29 02:10:14;;;;;;;7.82;3.20;;;;;;;;;;5046681;28;20052;-63
2022/06/29 02:12:40;;;;;;;6.13;3.40;;;;;;;;;;5058673;28;20052;-63
2022/06/29 02:15:07;;;;;;;5.95;3.13;;;;;;;;;;5055775;28;20055;-63
2022/06/29 02:17:33;;;;;;;6.68;3.47;;;;;;;;;;5046527;28;20139;-63
2022/06/29 02:20:00;;;;;;;8.45;3.30;;;;;;;;;;5048639;28;20098;-62
2022/06/29 02:22:26;;;;;;;5.82;3.83;;;;;;;;;;5047458;28;21619;-63
2022/06/29 02:24:52;;;;;;;8.82;3.47;;;;;;;;;;5054956;28;20049;-63
2022/06/29 02:27:19;;;;;;;7.78;3.58;;;;;;;;;;5049223;28;20056;-64
2022/06/29 02:29:46;;;;;;;6.00;3.42;;;;;;;;;;5053179;28;20044;-64
2022/06/29 02:34:57;;;;;;;6.28;3.83;;;;;;;;;;5039321;28;20131;-64
2022/06/29 02:37:23;;;;;;;6.55;3.45;;;;;;;;;;5046506;28;20059;-64
2022/06/29 02:39:49;;;;;;;7.38;3.92;;;;;;;;;;5046047;28;20044;-63
2022/06/29 02:42:16;;;;;;;6.63;3.70;;;;;;;;;;5051002;28;20045;-65
2022/06/29 02:44:42;;;;;;;6.85;3.90;;;;;;;;;;5049001;28;20048;-64
2022/06/29 02:47:09;;;;;;;5.55;3.60;;;;;;;;;;5044509;28;20049;-63
2022/06/29 02:49:35;;;;;;;8.93;4.78;;;;;;;;;;5052532;28;20863;-63
2022/06/29 02:52:02;;;;;;;5.10;3.90;;;;;;;;;;5047016;28;20501;-64
2022/06/29 02:54:28;;;;;;;5.60;3.60;;;;;;;;;;5051637;28;20350;-64
2022/06/29 02:56:55;;;;;;;7.50;3.85;;;;;;;;;;5044517;28;20041;-64
2022/06/29 02:59:22;;;;;;;7.10;3.63;;;;;;;;;;5055556;28;20056;-63
2022/06/29 03:01:48;;;;;;;6.07;3.70;;;;;;;;;;5050529;28;20050;-63
2022/06/29 03:04:14;;;;;;;6.07;3.75;;;;;;;;;;5048110;28;20044;-65
2022/06/29 03:06:41;;;;;;;5.75;3.60;;;;;;;;;;5047232;28;20044;-63
2022/06/29 03:09:08;;;;;;;8.13;4.03;;;;;;;;;;5038654;28;20049;-64
2022/06/29 03:11:34;;;;;;;5.72;3.80;;;;;;;;;;5047221;28;20564;-64
2022/06/29 03:14:00;;;;;;;7.00;4.10;;;;;;;;;;5038016;28;20052;-64
2022/06/29 03:16:27;;;;;;;7.85;3.78;;;;;;;;;;5049030;28;20388;-65
2022/06/29 03:18:53;;;;;;;6.47;3.92;;;;;;;;;;5054908;28;20455;-64
2022/06/29 03:21:20;;;;;;;7.50;3.97;;;;;;;;;;5041341;28;20040;-63
2022/06/29 03:23:46;;;;;;;5.85;4.35;;;;;;;;;;5050205;28;20131;-64
2022/06/29 03:26:12;;;;;;;5.72;3.83;;;;;;;;;;5042104;28;20049;-63
2022/06/29 03:28:39;;;;;;;7.47;3.88;;;;;;;;;;5051265;28;20032;-63
2022/06/29 03:31:05;;;;;;;6.07;3.97;;;;;;;;;;5055608;28;20055;-65
2022/06/29 03:33:32;;;;;;;5.60;3.50;;;;;;;;;;5046642;28;20065;-64
2022/06/29 03:35:58;;;;;;;5.47;3.80;;;;;;;;;;5053290;28;20048;-64
2022/06/29 03:38:24;;;;;;;9.43;3.55;;;;;;;;;;5043929;28;20075;-64
2022/06/29 03:40:51;;;;;;;6.10;3.80;;;;;;;;;;5058943;28;20048;-64
2022/06/29 03:43:17;;;;;;;8.15;3.90;;;;;;;;;;5046665;28;20476;-64
2022/06/29 03:45:44;;;;;;;6.45;3.20;;;;;;;;;;5053864;28;20139;-65
2022/06/29 03:48:11;;;;;;;6.15;3.45;;;;;;;;;;5031941;28;20421;-64
2022/06/29 03:50:37;;;;;;;6.95;3.90;;;;;;;;;;5059183;28;20050;-63
2022/06/29 03:53:04;;;;;;;5.88;4.20;;;;;;;;;;5058968;28;20534;-64
2022/06/29 03:55:30;;;;;;;5.40;3.75;;;;;;;;;;5047711;28;20049;-64
2022/06/29 03:57:57;;;;;;;6.50;4.05;;;;;;;;;;5052182;28;20459;-63
2022/06/29 04:00:23;;;;;;;5.93;3.95;;;;;;;;;;5046575;28;20056;-63
2022/06/29 04:02:49;;;;;;;5.75;4.30;;;;;;;;;;5055377;28;20045;-64
2022/06/29 04:05:16;;;;;;;5.85;4.25;;;;;;;;;;5052237;28;20072;-64
2022/06/29 04:07:42;;;;;;;6.45;4.60;;;;;;;;;;5046430;28;20048;-63
2022/06/29 04:10:08;;;;;;;6.70;4.65;;;;;;;;;;5050268;28;20556;-63
2022/06/29 04:12:35;;;;;;;6.70;4.75;;;;;;;;;;5043333;28;20572;-64
2022/06/29 04:15:03;;;;;;;9.77;5.45;;;;;;;;;;5057607;28;20438;-63
2022/06/29 04:17:30;;;;;;;8.57;4.53;;;;;;;;;;5044877;28;20051;-66
2022/06/29 04:19:56;;;;;;;8.90;4.78;;;;;;;;;;5047687;28;20045;-64
2022/06/29 04:22:22;;;;;;;6.75;4.70;;;;;;;;;;5054184;28;20523;-63
2022/06/29 04:24:49;;;;;;;7.75;4.90;;;;;;;;;;5044095;28;20534;-64
2022/06/29 04:27:16;;;;;;;6.88;4.90;;;;;;;;;;5038273;28;20048;-64
2022/06/29 04:29:43;;;;;;;9.00;4.75;;;;;;;;;;5045683;28;20078;-64
2022/06/29 04:32:10;;;;;;;7.38;5.70;;;;;;;;;;5031412;28;20414;-64
2022/06/29 04:34:39;;;;;;;8.82;5.90;;;;;;;;;;5049196;28;20065;-63
2022/06/29 04:37:05;;;;;;;7.72;5.22;;;;;;;;;;5043904;28;20451;-63
2022/06/29 04:39:32;;;;;;;10.63;4.82;;;;;;;;;;5053512;28;20063;-63
2022/06/29 04:41:58;;;;;;;9.05;4.65;;;;;;;;;;5046633;28;20060;-64
2022/06/29 04:44:25;;;;;;;7.95;4.28;;;;;;;;;;5056992;28;20525;-64
2022/06/29 04:46:55;;;;;;;10.17;5.20;;;;;;;;;;5049887;28;20067;-64
2022/06/29 04:49:22;;;;;;;12.50;4.32;;;;;;;;;;5052260;28;20057;-64
2022/06/29 04:51:49;;;;;;;8.40;4.85;;;;;;;;;;5055378;28;20148;-62
2022/06/29 04:54:15;;;;;;;9.18;4.53;;;;;;;;;;5047468;28;20091;-64
2022/06/29 04:56:42;;;;;;;7.55;4.35;;;;;;;;;;5058596;28;20052;-64
2022/06/29 04:59:08;;;;;;;7.40;4.53;;;;;;;;;;5047803;28;20556;-64
2022/06/29 05:01:34;;;;;;;7.65;5.57;;;;;;;;;;5054595;28;20690;-63
2022/06/29 05:04:01;;;;;;;5.72;5.10;;;;;;;;;;5048810;28;20346;-64
2022/06/29 05:06:28;;;;;;;7.05;4.00;;;;;;;;;;5039038;28;20049;-64
2022/06/29 05:08:56;;;;;;;7.32;4.85;;;;;;;;;;5036110;28;20862;-65
2022/06/29 05:11:23;;;;;;;7.47;5.28;;;;;;;;;;5046885;28;20051;-64
2022/06/29 05:13:49;;;;;;;8.10;5.13;;;;;;;;;;5062296;28;20167;-63
2022/06/29 05:16:18;;;;;;;8.98;5.75;;;;;;;;;;5037914;28;20041;-64
2022/06/29 05:18:44;;;;;;;9.07;5.43;;;;;;;;;;5061293;28;20832;-63
2022/06/29 05:21:11;;;;;;;7.57;5.47;;;;;;;;;;5060640;28;20046;-63
2022/06/29 05:23:38;;;;;;;13.52;5.28;;;;;;;;;;5048757;28;20441;-64
2022/06/29 05:26:04;;;;;;;9.35;5.68;;;;;;;;;;5058404;28;20051;-63
2022/06/29 05:28:30;;;;;;;7.75;5.30;;;;;;;;;;5053296;28;20058;-65
2022/06/29 05:30:57;;;;;;;5.97;5.20;;;;;;;;;;5051652;28;20049;-64
2022/06/29 05:33:23;;;;;;;7.28;5.45;;;;;;;;;;5056288;28;20052;-62
2022/06/29 05:35:49;;;;;;;6.68;5.07;;;;;;;;;;5059752;28;20513;-63
2022/06/29 05:38:16;;;;;;;9.00;5.55;;;;;;;;;;5061123;28;20722;-63
2022/06/29 05:40:43;;;;;;;8.50;5.50;;;;;;;;;;5050653;28;20052;-63
2022/06/29 05:43:10;;;;;;;7.75;5.40;;;;;;;;;;5055033;28;20330;-63
2022/06/29 05:45:36;;;;;;;8.52;5.60;;;;;;;;;;5050562;28;20521;-63
2022/06/29 05:48:03;;;;;;;6.32;4.57;;;;;;;;;;5053894;28;20075;-63
2022/06/29 05:50:30;;;;;;;4.47;3.92;;;;;;;;;;5050423;28;20048;-64
2022/06/29 05:52:56;;;;;;;7.32;4.50;;;;;;;;;;5053175;28;20416;-64
2022/06/29 05:55:22;;;;;;;10.25;5.00;;;;;;;;;;5058587;28;20086;-63
2022/06/29 05:57:49;;;;;;;8.27;4.68;;;;;;;;;;5043008;28;20040;-64
2022/06/29 06:00:15;;;;;;;6.93;4.25;;;;;;;;;;5055667;28;20195;-63
2022/06/29 06:02:48;;;;;;;7.72;4.38;;;;;;;;;;5049203;28;20155;-63
2022/06/29 06:05:14;;;;;;;6.50;4.40;;;;;;;;;;5056131;28;20102;-64
2022/06/29 06:07:40;;;;;;;7.93;5.22;;;;;;;;;;5057714;28;20049;-63
2022/06/29 06:10:07;;;;;;;5.00;3.75;;;;;;;;;;5043550;28;20049;-64
2022/06/29 06:12:33;;;;;;;9.25;4.65;;;;;;;;;;5048737;28;20139;-64
2022/06/29 06:15:01;;;;;;;9.30;4.25;;;;;;;;;;5052871;28;20513;-63
2022/06/29 06:17:28;;;;;;;6.47;4.60;;;;;;;;;;5060373;28;20127;-64
2022/06/29 06:20:01;;;;;;;6.75;4.82;;;;;;;;;;5054715;28;20060;-64
2022/06/29 06:22:28;;;;;;;;;;;;;;;;;;5051287;28;20045;-63
2022/06/29 06:24:54;;;;;;;10.25;5.47;;;;;;;;;;5053108;28;19931;-65
2022/06/29 06:27:21;;;;;;;5.82;4.72;;;;;;;;;;5051954;28;20059;-64
2022/06/29 06:29:47;;;;;;;8.02;4.55;;;;;;;;;;5039773;28;20967;-64
2022/06/29 06:32:13;;;;;;;10.65;5.28;;;;;;;;;;5050890;28;20162;-64
2022/06/29 06:34:40;;;;;;;5.38;4.82;;;;;;;;;;5049052;28;20377;-64
2022/06/29 06:37:06;;;;;;;10.65;5.03;;;;;;;;;;5053764;28;20357;-63
2022/06/29 06:39:32;;;;;;;8.25;4.57;;;;;;;;;;5032809;28;20069;-64
2022/06/29 06:41:59;;;;;;;6.40;4.43;;;;;;;;;;5060944;28;20058;-64
2022/06/29 06:44:25;;;;;;;6.20;3.58;;;;;;;;;;5053121;28;20036;-64
2022/06/29 06:46:58;;;;;;;9.98;5.00;;;;;;;;;;5060615;28;20380;-64
2022/06/29 06:49:25;;;;;;;9.85;4.63;;;;;;;;;;5051886;28;20057;-63
2022/06/29 06:51:52;;;;;;;6.45;4.20;;;;;;;;;;5057248;28;20048;-64
2022/06/29 06:54:18;;;;;;;7.63;3.67;;;;;;;;;;5060899;28;20063;-63
2022/06/29 06:56:45;;;;;;;5.15;3.22;;;;;;;;;;5030866;28;20206;-64
2022/06/29 06:59:11;;;;;;;7.10;3.55;;;;;;;;;;5056026;28;20072;-64
2022/06/29 07:01:38;;;;;;;6.75;2.63;;;;;;;;;;5053410;28;20048;-64
2022/06/29 07:04:05;;;;;;;8.50;4.32;;;;;;;;;;5060809;28;20416;-64
2022/06/29 07:06:32;;;;;;;8.55;4.10;;;;;;;;;;5060738;28;20432;-65
2022/06/29 07:08:59;;;;;;;7.32;3.90;;;;;;;;;;5050314;28;20436;-63
2022/06/29 07:11:25;;;;;;;7.22;3.67;;;;;;;;;;5048760;28;20702;-63
2022/06/29 07:13:51;;;;;;;5.38;3.05;;;;;;;;;;5043134;28;20045;-63
2022/06/29 07:16:17;;;;;;;6.28;3.50;;;;;;;;;;5044288;28;20390;-63
2022/06/29 07:18:44;;;;;;;4.97;2.80;;;;;;;;;;5035876;28;20150;-64
2022/06/29 07:21:10;;;;;;;6.00;3.33;;;;;;;;;;5050247;28;20044;-62
2022/06/29 07:23:37;;;;;;;6.70;3.50;;;;;;;;;;5053908;28;20056;-64
2022/06/29 07:26:03;;;;;;;7.82;3.75;;;;;;;;;;5043138;28;20129;-64
2022/06/29 07:28:29;;;;;;;9.23;3.65;;;;;;;;;;5052769;28;20048;-64
2022/06/29 07:30:56;;;;;;;6.85;3.75;;;;;;;;;;5048745;28;20417;-63
2022/06/29 07:33:22;;;;;;;7.35;3.22;;;;;;;;;;5027879;28;20056;-64
2022/06/29 07:35:48;;;;;;;8.85;2.88;;;;;;;;;;5042525;28;20058;-65
2022/06/29 07:38:15;;;;;;;5.03;3.22;;;;;;;;;;5044088;28;20109;-64
2022/06/29 07:40:41;;;;;;;5.22;2.72;;;;;;;;;;5059497;28;20383;-64
2022/06/29 07:43:08;;;;;;;6.10;3.53;;;;;;;;;;5049745;28;20059;-64
2022/06/29 07:45:34;;;;;;;6.82;2.90;;;;;;;;;;5056661;28;20058;-63
2022/06/29 07:48:01;;;;;;;3.40;2.38;;;;;;;;;;5049460;28;20122;-64
2022/06/29 07:50:27;;;;;;;6.82;2.47;;;;;;;;;;5051870;28;20052;-64
2022/06/29 07:52:53;;;;;;;4.75;2.22;;;;;;;;;;5061563;28;20052;-64
2022/06/29 07:55:20;;;;;;;5.78;2.58;;;;;;;;;;5047513;28;20055;-64
2022/06/29 07:57:47;;;;;;;6.72;3.17;;;;;;;;;;5054586;28;20131;-64
2022/06/29 08:00:13;;;;;;;6.68;3.35;;;;;;;;;;5052270;28;20497;-64
2022/06/29 08:02:40;;;;;;;6.22;3.40;;;;;;;;;;5048389;28;20400;-64
2022/06/29 08:05:06;;;;;;;4.50;2.53;;;;;;;;;;5047522;28;21089;-64
2022/06/29 08:07:33;;;;;;;4.50;2.95;;;;;;;;;;5050176;28;20049;-63
2022/06/29 08:09:59;;;;;;;7.43;2.90;;;;;;;;;;5048767;28;20052;-64
2022/06/29 08:12:25;;;;;;;5.13;2.78;;;;;;;;;;5051023;28;20427;-63
2022/06/29 08:14:52;;;;;;;5.07;2.58;;;;;;;;;;5046433;28;20472;-64
2022/06/29 08:17:18;;;;;;;5.45;3.00;;;;;;;;;;5046361;28;20419;-64
2022/06/29 08:19:45;;;;;;;7.05;3.30;;;;;;;;;;5053637;28;20045;-64
2022/06/29 08:22:12;;;;;;;4.35;2.25;;;;;;;;;;5048772;28;20064;-64
2022/06/29 08:24:38;;;;;;;5.05;2.88;;;;;;;;;;5037908;28;20052;-64
2022/06/29 08:27:04;;;;;;;2.83;2.15;;;;;;;;;;5059121;28;20045;-64
2022/06/29 08:29:51;;;;;;;5.93;2.22;;;;;;;;;;5046177;28;20041;-64
2022/06/29 08:32:17;;;;;;;6.03;2.63;;;;;;;;;;5053577;28;20044;-63
2022/06/29 08:34:43;;;;;;;4.40;2.33;;;;;;;;;;5041035;28;20041;-64
2022/06/29 08:37:10;;;;;;;4.53;2.47;;;;;;;;;;5049615;28;20045;-64
2022/06/29 08:39:36;;;;;;;6.53;2.75;;;;;;;;;;5053959;28;20660;-64
2022/06/29 08:42:04;;;;;;;4.57;2.90;;;;;;;;;;5047328;28;20040;-64
2022/06/29 08:44:31;;;;;;;7.13;2.92;;;;;;;;;;5049610;28;20048;-64
2022/06/29 08:46:59;;;;;;;7.68;2.50;;;;;;;;;;5041556;28;20056;-63
2022/06/29 08:49:26;;;;;;;8.48;3.03;;;;;;;;;;5057013;28;20555;-63
2022/06/29 08:51:55;;;;;;;10.95;2.70;;;;;;;;;;5049942;28;20150;-63
2022/06/29 08:54:22;;;;;;;6.75;2.78;;;;;;;;;;5054772;28;20059;-64
2022/06/29 08:56:48;;;;;;;6.53;2.20;;;;;;;;;;5054219;28;20233;-64
2022/06/29 08:59:15;;;;;;;7.82;2.67;;;;;;;;;;5053905;28;20127;-63
2022/06/29 09:01:43;;;;;;;4.07;2.42;;;;;;;;;;5054494;28;20555;-63
2022/06/29 09:04:10;;;;;;;8.55;3.05;;;;;;;;;;5033270;28;20162;-63
2022/06/29 09:06:36;;;;;;;7.38;2.85;;;;;;;;;;5055379;28;20052;-64
2022/06/29 09:09:03;;;;;;;9.25;2.75;;;;;;;;;;5058378;28;20139;-64
2022/06/29 09:11:29;;;;;;;6.63;2.85;;;;;;;;;;5044922;28;20053;-63
2022/06/29 09:14:16;;;;;;;8.45;2.75;;;;;;;;;;5053842;28;20044;-64
2022/06/29 09:16:56;;;;;;;9.07;2.50;;;;;;;;;;5036248;28;20396;-62
2022/06/29 09:19:24;;;;;;;6.65;2.55;;;;;;;;;;5045932;28;20040;-64
2022/06/29 09:21:52;;;;;;;6.18;2.50;;;;;;;;;;5039961;28;20058;-64
2022/06/29 09:24:21;;;;;;;8.32;2.10;;;;;;;;;;5053805;28;20040;-63
2022/06/29 09:26:51;;;;;;;6.40;2.60;;;;;;;;;;5059009;28;20041;-63
2022/06/29 09:29:23;;;;;;;4.68;2.00;;;;;;;;;;5038508;28;20452;-64
2022/06/29 09:32:04;;;;;;;3.30;1.90;;;;;;;;;;5042612;28;20055;-64
2022/06/29 09:34:45;;;;;;;6.35;2.17;;;;;;;;;;5048841;28;20102;-65
2022/06/29 09:37:13;;;;;;;4.85;2.22;;;;;;;;;;5055516;28;20480;-64
2022/06/29 09:39:39;;;;;;;8.10;2.33;;;;;;;;;;5047766;28;20059;-63
2022/06/29 09:42:11;;;;;;;6.93;2.20;;;;;;;;;;5061780;28;20379;-64
2022/06/29 09:44:37;;;;;;;4.43;2.10;;;;;;;;;;5052132;28;20040;-64
2022/06/29 09:47:06;;;;;;;3.97;2.00;;;;;;;;;;5057070;28;20417;-64
2022/06/29 09:49:34;;;;;;;5.28;1.60;;;;;;;;;;5055334;28;20817;-65
2022/06/29 09:52:01;;;;;;;6.90;1.90;;;;;;;;;;5051632;28;20493;-64
2022/06/29 09:54:30;;;;;;;4.13;1.83;;;;;;;;;;5043657;28;20060;-64
2022/06/29 09:56:57;;;;;;;3.92;1.75;;;;;;;;;;5050230;28;20277;-63
2022/06/29 10:02:34;;;;;;;8.35;2.13;;;;;;;;;;5060608;28;20057;-64
2022/06/29 10:04:59;;;;;;;3.38;1.55;;;;;;;;;;5056575;28;20640;-64
2022/06/29 10:07:25;;;;;;;;;;;;;;;;;;5061514;28;20260;-64
2022/06/29 10:09:51;;;;;;;2.00;1.52;;;;;;;;;;5051167;28;19959;-64
2022/06/29 10:15:33;;;;;;;6.97;1.83;;;;;;;;;;5054726;28;20144;-64
2022/06/29 10:18:18;;;;;;;4.32;1.67;;;;;;;;;;5062835;28;20481;-64
2022/06/29 10:20:48;;;;;;;2.70;1.33;;;;;;;;;;5055085;28;20044;-64
2022/06/29 10:23:33;;;;;;;4.00;1.77;;;;;;;;;;5062755;28;20052;-64
2022/06/29 10:26:00;;;;;;;5.88;1.88;;;;;;;;;;5039936;28;20436;-64
2022/06/29 10:28:27;;;;;;;;;;;;;;;;;;5056551;28;20453;-64
2022/06/29 10:30:54;;;;;;;4.80;1.60;;;;;;;;;;5053697;28;19924;-64
2022/06/29 10:33:20;;;;;;;;;;;;;;;;;;5039935;28;20400;-64
2022/06/29 10:35:59;;;;;;;4.50;1.52;;;;;;;;;;5050088;28;20428;-64
2022/06/29 10:38:27;;;;;;;4.85;1.83;;;;;;;;;;5048999;28;20092;-63
2022/06/29 10:43:07;;;;;;;2.83;1.60;;;;;;;;;;5061172;28;20048;-63
2022/06/29 10:43:58;;;;;;;3.70;1.50;;;;;;;;;;5038583;28;20552;-63
2022/06/29 10:46:24;;;;;;;5.22;1.60;;;;;;;;;;5049405;28;20049;-65
2022/06/29 10:49:16;;;;;;;2.53;1.35;;;;;;;;;;5041869;28;20052;-64
2022/06/29 10:51:42;;;;;;;5.47;1.48;;;;;;;;;;5055346;28;20568;-64
2022/06/29 10:54:22;;;;;;;3.03;1.40;;;;;;;;;;5060638;28;20060;-64
2022/06/29 10:56:49;;;;;;;4.90;1.50;;;;;;;;;;5052153;28;20449;-64
2022/06/29 10:59:32;;;;;;;3.63;1.40;;;;;;;;;;5059912;28;20787;-65
2022/06/29 11:02:11;;;;;;;3.10;1.30;;;;;;;;;;5050607;28;20054;-65
2022/06/29 11:04:38;;;;;;;2.53;1.50;;;;;;;;;;5056716;28;20568;-64
2022/06/29 11:12:35;;;;;;;3.92;1.30;;;;;;;;;;5045571;28;20060;-64
2022/06/29 11:17:47;;;;;;;2.85;1.27;;;;;;;;;;5058629;28;20048;-64
2022/06/29 11:20:20;;;;;;;2.28;1.20;;;;;;;;;;5050845;28;20182;-63
2022/06/29 11:22:50;;;;;;;4.57;1.20;;;;;;;;;;5058563;28;20163;-65
2022/06/29 11:25:16;;;;;;;4.50;1.42;;;;;;;;;;5050395;28;20439;-64
2022/06/29 11:27:43;;;;;;;4.22;1.10;;;;;;;;;;5055622;28;20045;-63
2022/06/29 11:30:11;;;;;;;2.13;1.07;;;;;;;;;;5047105;28;20040;-64
2022/06/29 11:32:39;;;;;;;2.78;1.10;;;;;;;;;;5058068;28;20048;-65
2022/06/29 11:35:05;;;;;;;3.97;1.27;;;;;;;;;;5054463;28;20128;-64
2022/06/29 11:37:44;;;;;;;5.40;1.58;;;;;;;;;;5044951;28;20381;-64
2022/06/29 11:40:11;;;;;;;4.18;1.33;;;;;;;;;;5053428;28;20135;-63
2022/06/29 11:45:28;;;;;;;2.65;1.25;;;;;;;;;;5058472;28;20094;-64
2022/06/29 11:47:55;;;;;;;4.70;1.55;;;;;;;;;;5047699;28;20052;-63
2022/06/29 11:50:21;;;;;;;3.75;1.50;;;;;;;;;;5058654;28;20131;-64
2022/06/29 11:52:51;;;;;;;5.45;1.48;;;;;;;;;;5058718;28;20455;-64
2022/06/29 11:55:36;;;;;;;3.78;1.63;;;;;;;;;;5054045;28;20048;-64
2022/06/29 11:58:02;;;;;;;5.78;1.50;;;;;;;;;;5039435;28;20049;-64
2022/06/29 12:00:29;;;;;;;3.15;1.50;;;;;;;;;;5053523;28;20060;-64
2022/06/29 12:03:00;;;;;;;3.10;1.42;;;;;;;;;;5057148;28;20060;-64
2022/06/29 12:05:26;;;;;;;2.38;1.50;;;;;;;;;;5048054;28;20044;-64
2022/06/29 12:07:52;;;;;;;3.38;1.50;;;;;;;;;;5058067;28;20408;-64
2022/06/29 12:10:19;;;;;;;3.05;1.17;;;;;;;;;;5057771;28;20062;-64
2022/06/29 12:12:45;;;;;;;5.60;1.33;;;;;;;;;;5036087;28;20579;-64
2022/06/29 12:15:13;;;;;;;2.03;1.42;;;;;;;;;;5062152;28;20429;-64
2022/06/29 12:17:40;;;;;;;2.92;1.30;;;;;;;;;;5049661;28;20114;-65
2022/06/29 12:20:07;;;;;;;4.35;1.48;;;;;;;;;;5054214;28;20389;-63
2022/06/29 12:22:53;;;;;;;4.57;1.42;;;;;;;;;;5038215;28;20044;-65
2022/06/29 12:25:22;;;;;;;4.35;1.58;;;;;;;;;;5055958;28;20052;-64
2022/06/29 12:27:48;;;;;;;2.75;1.50;;;;;;;;;;5044708;28;20150;-64
2022/06/29 12:30:15;;;;;;;3.45;1.38;;;;;;;;;;5049709;28;20135;-65
2022/06/29 12:32:41;;;;;;;4.97;1.50;;;;;;;;;;5049872;28;20041;-64
2022/06/29 12:35:07;;;;;;;6.25;2.03;;;;;;;;;;5040512;28;20052;-64
2022/06/29 12:37:34;;;;;;;7.10;1.60;;;;;;;;;;5044157;28;20136;-64
2022/06/29 12:40:00;;;;;;;4.75;1.60;;;;;;;;;;5048439;28;20277;-64
2022/06/29 12:42:27;;;;;;;2.25;1.35;;;;;;;;;;5049859;28;20049;-64
2022/06/29 12:44:53;;;;;;;4.43;1.58;;;;;;;;;;5057956;28;20132;-65
2022/06/29 12:47:19;;;;;;;4.07;1.63;;;;;;;;;;5045051;28;20569;-64
2022/06/29 12:49:46;;;;;;;4.55;1.60;;;;;;;;;;5062326;28;20055;-65
2022/06/29 12:52:12;;;;;;;6.28;1.73;;;;;;;;;;5053650;28;20158;-63
2022/06/29 12:54:39;;;;;;;4.13;1.58;;;;;;;;;;5062102;28;20079;-64
2022/06/29 12:57:05;;;;;;;6.07;1.60;;;;;;;;;;5055713;28;20417;-64
2022/06/29 12:59:31;;;;;;;4.97;1.65;;;;;;;;;;5059159;28;20050;-64
2022/06/29 13:01:58;;;;;;;4.15;1.50;;;;;;;;;;5062922;28;20048;-64
2022/06/29 13:04:25;;;;;;;4.80;1.63;;;;;;;;;;5043830;28;20049;-64
2022/06/29 13:06:51;;;;;;;4.20;1.60;;;;;;;;;;5056382;28;20143;-65
2022/06/29 13:09:17;;;;;;;6.05;1.55;;;;;;;;;;5043392;28;20045;-64
2022/06/29 13:11:44;;;;;;;3.40;1.48;;;;;;;;;;5059640;28;20045;-64
2022/06/29 13:14:10;;;;;;;4.82;1.42;;;;;;;;;;5059399;28;20063;-63
2022/06/29 13:16:37;;;;;;;5.43;1.55;;;;;;;;;;5042797;28;20060;-63
2022/06/29 13:19:04;;;;;;;3.55;1.60;;;;;;;;;;5041289;28;20399;-62
2022/06/29 13:21:30;;;;;;;3.58;1.40;;;;;;;;;;5023686;28;20103;-64
2022/06/29 13:23:57;;;;;;;3.08;1.50;;;;;;;;;;5058527;28;20144;-64
2022/06/29 13:26:23;;;;;;;3.95;1.80;;;;;;;;;;5038197;28;20144;-65
2022/06/29 13:28:50;;;;;;;4.30;1.67;;;;;;;;;;5060992;28;20463;-65
2022/06/29 13:31:16;;;;;;;4.85;1.67;;;;;;;;;;5056045;28;20056;-65
2022/06/29 13:33:43;;;;;;;4.30;1.80;;;;;;;;;;5051297;28;20133;-64
2022/06/29 13:36:09;;;;;;;3.75;1.83;;;;;;;;;;5061443;28;20059;-65
2022/06/29 13:38:36;;;;;;;4.00;1.70;;;;;;;;;;5052857;28;20087;-64
2022/06/29 13:41:02;;;;;;;4.47;1.75;;;;;;;;;;5061246;28;20135;-65
2022/06/29 13:43:29;;;;;;;2.60;1.60;;;;;;;;;;5043345;28;20544;-64
2022/06/29 13:45:55;;;;;;;4.05;1.80;;;;;;;;;;5048476;28;20399;-65
2022/06/29 13:48:21;;;;;;;2.42;1.52;;;;;;;;;;5055872;28;20057;-65
2022/06/29 13:50:48;;;;;;;2.25;1.65;;;;;;;;;;5054390;28;20048;-65
2022/06/29 13:53:15;;;;;;;3.53;1.52;;;;;;;;;;5041685;28;20059;-63
2022/06/29 13:55:41;;;;;;;2.97;1.70;;;;;;;;;;5055110;28;20730;-65
2022/06/29 13:58:14;;;;;;;2.25;1.40;;;;;;;;;;5060916;28;20477;-64
2022/06/29 14:00:40;;;;;;;4.25;1.70;;;;;;;;;;5060525;28;20078;-64
2022/06/29 14:03:07;;;;;;;3.35;1.48;;;;;;;;;;5052428;28;20139;-64
2022/06/29 14:05:33;;;;;;;3.77;1.77;;;;;;;;;;5048542;28;20045;-64
2022/06/29 14:08:00;;;;;;;4.77;1.90;;;;;;;;;;5047220;28;20043;-65
2022/06/29 14:10:47;;;;;;;4.63;1.80;;;;;;;;;;5043195;28;20123;-65
2022/06/29 14:13:13;;;;;;;3.55;1.90;;;;;;;;;;5041988;28;20064;-64
2022/06/29 14:15:43;;;;;;;4.47;2.15;;;;;;;;;;5043218;28;20052;-64
2022/06/29 14:18:09;;;;;;;3.63;1.80;;;;;;;;;;5036665;28;20053;-64
2022/06/29 14:20:36;;;;;;;5.03;2.30;;;;;;;;;;5050322;28;20562;-65
2022/06/29 14:23:03;;;;;;;8.23;2.20;;;;;;;;;;5056703;28;20281;-64
2022/06/29 14:25:32;;;;;;;6.90;2.08;;;;;;;;;;5046435;28;20110;-65
2022/06/29 14:27:58;;;;;;;5.82;2.20;;;;;;;;;;5051028;28;20053;-65
2022/06/29 14:30:25;;;;;;;4.45;2.20;;;;;;;;;;5051737;28;20417;-66
2022/06/29 14:32:51;;;;;;;3.63;2.08;;;;;;;;;;5023715;28;20068;-64
2022/06/29 14:35:18;;;;;;;5.53;2.30;;;;;;;;;;5015627;28;20092;-64
2022/06/29 14:37:44;;;;;;;5.60;2.50;;;;;;;;;;5010819;28;20581;-64
2022/06/29 14:40:11;;;;;;;4.63;2.55;;;;;;;;;;5019739;28;20368;-64
2022/06/29 14:42:37;;;;;;;6.10;3.10;;;;;;;;;;5010982;28;20479;-64
2022/06/29 14:45:04;;;;;;;7.73;2.60;;;;;;;;;;5007691;28;20461;-64
2022/06/29 14:47:30;;;;;;;6.82;2.10;;;;;;;;;;5015001;28;20164;-64
2022/06/29 14:49:57;;;;;;;6.55;2.17;;;;;;;;;;5006286;28;20370;-64
2022/06/29 14:52:23;;;;;;;5.93;2.00;;;;;;;;;;5008579;28;20055;-64
2022/06/29 14:54:51;;;;;;;4.35;2.25;;;;;;;;;;4992976;28;20064;-64
2022/06/29 14:57:17;;;;;;;4.63;2.13;;;;;;;;;;4999422;28;20134;-64
2022/06/29 14:59:44;;;;;;;7.50;2.05;;;;;;;;;;4994450;28;20048;-65
2022/06/29 15:02:11;;;;;;;6.57;1.98;;;;;;;;;;5000900;28;20076;-64
2022/06/29 15:04:38;;;;;;;3.25;1.95;;;;;;;;;;5003940;28;20056;-66
2022/06/29 15:07:04;;;;;;;6.97;2.50;;;;;;;;;;4996805;28;20104;-64